Time;durP1;ratioP1;P1;durP2;ratioP2;P2;SDS_P1;SDS_P2;PMS_P1;PMS_P2;Temp;Humidity;BMP_temperature;BMP_pressure;BME280_temperature;BME280_humidity;BME280_pressure;Samples;Min_cycle;Max_cycle;Signal;HPM_P1;HPM_P2
2022/03/15 00:02:46;;;;;;;115.57;45.97;;;;;;;;;;6243222;28;20025;-66
2022/03/15 00:05:46;;;;;;;129.13;50.97;;;;;;;;;;6242571;28;20104;-66
2022/03/15 00:08:48;;;;;;;134.43;55.85;;;;;;;;;;6242667;28;20029;-66
2022/03/15 00:11:48;;;;;;;132.63;54.47;;;;;;;;;;6242773;28;20484;-66
2022/03/15 00:14:49;;;;;;;146.93;56.58;;;;;;;;;;6242727;28;20025;-66
2022/03/15 00:17:49;;;;;;;163.40;64.57;;;;;;;;;;6243004;28;20350;-66
2022/03/15 00:20:50;;;;;;;150.30;57.53;;;;;;;;;;6242688;28;20029;-65
2022/03/15 00:23:50;;;;;;;179.70;65.55;;;;;;;;;;6242575;28;20100;-65
2022/03/15 00:26:51;;;;;;;183.38;75.60;;;;;;;;;;6237433;28;20386;-65
2022/03/15 00:29:51;;;;;;;369.08;138.48;;;;;;;;;;6219149;28;20152;-65
2022/03/15 00:32:52;;;;;;;264.42;102.95;;;;;;;;;;6242886;28;20025;-65
2022/03/15 00:35:53;;;;;;;242.48;91.75;;;;;;;;;;6244565;28;20064;-65
2022/03/15 00:38:54;;;;;;;217.95;78.47;;;;;;;;;;6247048;28;20036;-65
2022/03/15 00:41:54;;;;;;;174.52;64.90;;;;;;;;;;6246774;28;20055;-65
2022/03/15 00:44:54;;;;;;;192.55;69.68;;;;;;;;;;6246604;28;20079;-65
2022/03/15 00:47:55;;;;;;;130.80;52.90;;;;;;;;;;6246390;28;20480;-65
2022/03/15 00:50:55;;;;;;;117.35;43.10;;;;;;;;;;6246715;28;20021;-65
2022/03/15 00:53:56;;;;;;;111.45;40.83;;;;;;;;;;6246497;28;20053;-65
2022/03/15 00:56:57;;;;;;;113.13;38.95;;;;;;;;;;6247518;28;20033;-65
2022/03/15 00:59:57;;;;;;;99.22;38.25;;;;;;;;;;6246681;28;20013;-65
2022/03/15 01:02:58;;;;;;;90.93;33.50;;;;;;;;;;6228391;28;20021;-65
2022/03/15 01:05:58;;;;;;;85.75;33.47;;;;;;;;;;6246638;28;20210;-65
2022/03/15 01:08:59;;;;;;;78.05;32.28;;;;;;;;;;6245930;28;20025;-65
2022/03/15 01:11:59;;;;;;;101.20;37.60;;;;;;;;;;6228695;28;20052;-65
2022/03/15 01:14:59;;;;;;;97.38;39.33;;;;;;;;;;6245886;28;20508;-65
2022/03/15 01:17:59;;;;;;;112.78;36.13;;;;;;;;;;6232855;28;20029;-64
2022/03/15 01:21:00;;;;;;;118.43;44.22;;;;;;;;;;6246054;28;20021;-64
2022/03/15 01:24:00;;;;;;;102.97;42.47;;;;;;;;;;6246258;28;20100;-64
2022/03/15 01:27:00;;;;;;;96.32;37.25;;;;;;;;;;6239584;28;20014;-64
2022/03/15 01:30:01;;;;;;;90.78;34.92;;;;;;;;;;6223134;28;20424;-64
2022/03/15 01:33:01;;;;;;;88.10;33.10;;;;;;;;;;6245585;28;20028;-64
2022/03/15 01:36:01;;;;;;;90.68;35.70;;;;;;;;;;6245939;28;20017;-64
2022/03/15 01:39:04;;;;;;;97.07;41.97;;;;;;;;;;6245413;28;20421;-64
2022/03/15 01:42:04;;;;;;;100.20;41.63;;;;;;;;;;6245818;28;20017;-64
2022/03/15 01:45:05;;;;;;;101.43;40.13;;;;;;;;;;6245021;28;20028;-64
2022/03/15 01:48:06;;;;;;;95.95;38.22;;;;;;;;;;6245365;28;20488;-64
2022/03/15 01:51:07;;;;;;;100.03;38.75;;;;;;;;;;6220841;28;20025;-64
2022/03/15 01:54:08;;;;;;;93.82;41.53;;;;;;;;;;6235071;28;20132;-64
2022/03/15 01:57:09;;;;;;;85.43;33.90;;;;;;;;;;6245844;28;20031;-64
2022/03/15 02:00:09;;;;;;;96.72;37.28;;;;;;;;;;6245857;28;20030;-63
2022/03/15 02:03:09;;;;;;;98.47;34.25;;;;;;;;;;6245036;28;20488;-64
2022/03/15 02:06:10;;;;;;;82.80;31.70;;;;;;;;;;6244101;28;20049;-64
2022/03/15 02:09:11;;;;;;;107.47;38.97;;;;;;;;;;6219445;28;20022;-64
2022/03/15 02:12:11;;;;;;;92.43;38.35;;;;;;;;;;6241057;28;20021;-64
2022/03/15 02:15:11;;;;;;;82.40;33.35;;;;;;;;;;6244560;28;20029;-64
2022/03/15 02:18:12;;;;;;;77.68;34.72;;;;;;;;;;6244787;28;20033;-64
2022/03/15 02:21:12;;;;;;;85.55;33.67;;;;;;;;;;6244640;28;20029;-65
2022/03/15 02:24:12;;;;;;;86.07;33.03;;;;;;;;;;6244629;28;20017;-64
2022/03/15 02:27:13;;;;;;;81.85;32.45;;;;;;;;;;6236068;28;20536;-64
2022/03/15 02:30:13;;;;;;;66.90;29.98;;;;;;;;;;6228279;28;20017;-64
2022/03/15 02:33:13;;;;;;;70.72;29.40;;;;;;;;;;6244305;28;20120;-64
2022/03/15 02:36:15;;;;;;;87.18;32.85;;;;;;;;;;6244299;28;20400;-64
2022/03/15 02:39:16;;;;;;;71.07;30.23;;;;;;;;;;6243767;28;20013;-65
2022/03/15 02:42:16;;;;;;;72.85;30.02;;;;;;;;;;6244027;28;20032;-65
2022/03/15 02:45:17;;;;;;;73.68;29.67;;;;;;;;;;6243751;28;20026;-65
2022/03/15 02:48:18;;;;;;;82.07;31.52;;;;;;;;;;6243610;28;20021;-65
2022/03/15 02:51:18;;;;;;;69.05;29.20;;;;;;;;;;6244082;28;20032;-65
2022/03/15 02:54:18;;;;;;;79.93;33.00;;;;;;;;;;6243275;28;20450;-65
2022/03/15 02:57:24;;;;;;;62.72;28.63;;;;;;;;;;6244361;28;20112;-65
2022/03/15 03:00:27;;;;;;;61.88;27.00;;;;;;;;;;6244397;28;20039;-65
2022/03/15 03:03:28;;;;;;;74.18;29.17;;;;;;;;;;6236201;28;20013;-66
2022/03/15 03:06:28;;;;;;;77.93;29.90;;;;;;;;;;6219320;28;20022;-65
2022/03/15 03:09:29;;;;;;;70.55;31.08;;;;;;;;;;6218854;28;20032;-65
2022/03/15 03:12:30;;;;;;;89.05;33.55;;;;;;;;;;6242959;28;20468;-65
2022/03/15 03:15:32;;;;;;;82.70;32.65;;;;;;;;;;6243248;28;20405;-65
2022/03/15 03:18:33;;;;;;;76.10;31.03;;;;;;;;;;6243635;28;20017;-65
2022/03/15 03:21:36;;;;;;;67.75;33.03;;;;;;;;;;6243352;28;20335;-65
2022/03/15 03:24:36;;;;;;;73.55;30.60;;;;;;;;;;6243351;28;20421;-65
2022/03/15 03:27:37;;;;;;;82.93;32.08;;;;;;;;;;6213946;28;20101;-65
2022/03/15 03:30:37;;;;;;;71.82;33.63;;;;;;;;;;6226197;28;20025;-65
2022/03/15 03:33:37;;;;;;;74.13;31.88;;;;;;;;;;6243106;28;20021;-65
2022/03/15 03:36:38;;;;;;;87.90;39.03;;;;;;;;;;6242986;28;20444;-65
2022/03/15 03:39:38;;;;;;;82.93;36.08;;;;;;;;;;6242884;28;20016;-64
2022/03/15 03:42:39;;;;;;;90.40;42.28;;;;;;;;;;6243099;28;20183;-64
2022/03/15 03:45:39;;;;;;;103.35;41.35;;;;;;;;;;6243015;28;20637;-64
2022/03/15 03:48:39;;;;;;;89.35;37.33;;;;;;;;;;6242732;28;20025;-64
2022/03/15 03:51:40;;;;;;;84.88;37.50;;;;;;;;;;6243634;28;20382;-64
2022/03/15 03:54:40;;;;;;;92.65;34.55;;;;;;;;;;6241971;28;20408;-64
2022/03/15 03:57:41;;;;;;;74.28;33.95;;;;;;;;;;6241652;28;20049;-64
2022/03/15 04:00:41;;;;;;;77.10;34.10;;;;;;;;;;6239600;28;20013;-64
2022/03/15 04:03:42;;;;;;;79.68;32.78;;;;;;;;;;6242697;28;20013;-64
2022/03/15 04:06:42;;;;;;;72.22;31.73;;;;;;;;;;6243311;28;20420;-65
2022/03/15 04:09:42;;;;;;;70.20;31.60;;;;;;;;;;6242999;28;20028;-65
2022/03/15 04:12:43;;;;;;;77.05;34.40;;;;;;;;;;6247725;28;20554;-65
2022/03/15 04:15:44;;;;;;;83.57;34.47;;;;;;;;;;6247414;28;20045;-65
2022/03/15 04:18:44;;;;;;;91.20;33.95;;;;;;;;;;6236862;28;20054;-65
2022/03/15 04:21:44;;;;;;;80.35;33.00;;;;;;;;;;6243315;28;20381;-65
2022/03/15 04:24:45;;;;;;;85.25;34.05;;;;;;;;;;6224188;28;20107;-65
2022/03/15 04:27:45;;;;;;;80.03;34.42;;;;;;;;;;6234432;28;20384;-65
2022/03/15 04:30:46;;;;;;;96.43;38.72;;;;;;;;;;6247410;28;20068;-65
2022/03/15 04:33:46;;;;;;;80.80;32.45;;;;;;;;;;6247091;28;20477;-65
2022/03/15 04:36:46;;;;;;;73.00;30.88;;;;;;;;;;6246999;28;20025;-65
2022/03/15 04:39:47;;;;;;;85.90;34.60;;;;;;;;;;6246952;28;20018;-65
2022/03/15 04:42:52;;;;;;;120.47;47.30;;;;;;;;;;6246939;28;20029;-65
2022/03/15 04:45:53;;;;;;;101.22;42.50;;;;;;;;;;6246531;28;20373;-65
2022/03/15 04:48:54;;;;;;;119.50;47.63;;;;;;;;;;6246467;28;20101;-65
2022/03/15 04:51:54;;;;;;;97.77;38.53;;;;;;;;;;6247021;28;20080;-65
2022/03/15 04:54:54;;;;;;;84.15;36.10;;;;;;;;;;6246037;28;20408;-65
2022/03/15 04:57:55;;;;;;;80.82;33.00;;;;;;;;;;6235859;28;20022;-65
2022/03/15 05:00:55;;;;;;;86.85;33.83;;;;;;;;;;6225686;28;20033;-65
2022/03/15 05:03:55;;;;;;;111.43;44.92;;;;;;;;;;6220836;28;20021;-65
2022/03/15 05:06:56;;;;;;;113.75;45.88;;;;;;;;;;6221527;28;20030;-65
2022/03/15 05:13:15;;;;;;;112.63;42.13;;;;;;;;;;6246173;28;20484;-65
2022/03/15 05:16:18;;;;;;;99.10;40.67;;;;;;;;;;6246257;28;20029;-65
2022/03/15 05:19:18;;;;;;;87.40;38.45;;;;;;;;;;6246034;28;20071;-65
2022/03/15 05:22:19;;;;;;;90.53;39.10;;;;;;;;;;6245912;28;20006;-65
2022/03/15 05:25:19;;;;;;;89.35;39.58;;;;;;;;;;6246180;28;20045;-65
2022/03/15 05:28:19;;;;;;;86.35;36.88;;;;;;;;;;6228254;28;20026;-65
2022/03/15 05:31:20;;;;;;;89.85;35.47;;;;;;;;;;6234271;28;20063;-65
2022/03/15 05:34:21;;;;;;;91.60;38.15;;;;;;;;;;6245379;28;20025;-66
2022/03/15 05:37:21;;;;;;;85.82;38.25;;;;;;;;;;6246089;28;20021;-65
2022/03/15 05:40:21;;;;;;;81.93;35.25;;;;;;;;;;6245878;28;20029;-65
2022/03/15 05:43:22;;;;;;;80.75;34.33;;;;;;;;;;6245646;28;20037;-65
2022/03/15 05:46:23;;;;;;;86.25;36.10;;;;;;;;;;6234333;28;20389;-65
2022/03/15 05:49:23;;;;;;;81.40;40.90;;;;;;;;;;6230814;28;20064;-65
2022/03/15 05:52:23;;;;;;;98.82;41.92;;;;;;;;;;6245121;28;20029;-65
2022/03/15 05:55:24;;;;;;;88.78;41.70;;;;;;;;;;6244790;28;20017;-65
2022/03/15 05:58:24;;;;;;;96.85;39.42;;;;;;;;;;6245882;28;20067;-65
2022/03/15 06:01:24;;;;;;;84.32;39.63;;;;;;;;;;6234242;28;20534;-65
2022/03/15 06:04:25;;;;;;;95.00;43.20;;;;;;;;;;6224442;28;20026;-65
2022/03/15 06:07:27;;;;;;;82.75;39.28;;;;;;;;;;6226472;28;20026;-65
2022/03/15 06:10:28;;;;;;;92.57;42.03;;;;;;;;;;6232941;28;20024;-65
2022/03/15 06:13:29;;;;;;;94.17;42.70;;;;;;;;;;6244135;28;20025;-65
2022/03/15 06:16:29;;;;;;;90.97;42.38;;;;;;;;;;6238339;28;20084;-65
2022/03/15 06:19:29;;;;;;;95.30;39.90;;;;;;;;;;6240054;28;20022;-66
2022/03/15 06:22:29;;;;;;;89.47;41.15;;;;;;;;;;6233861;28;20020;-66
2022/03/15 06:25:30;;;;;;;83.57;39.22;;;;;;;;;;6241425;28;20079;-66
2022/03/15 06:28:31;;;;;;;76.80;36.72;;;;;;;;;;6234760;28;20018;-66
2022/03/15 06:31:31;;;;;;;75.88;36.90;;;;;;;;;;6247002;28;20365;-66
2022/03/15 06:34:32;;;;;;;78.07;37.45;;;;;;;;;;6244607;28;20021;-66
2022/03/15 06:37:35;;;;;;;76.20;40.05;;;;;;;;;;6243935;28;20014;-66
2022/03/15 06:40:36;;;;;;;73.15;38.55;;;;;;;;;;6253979;28;20036;-66
2022/03/15 06:43:36;;;;;;;64.53;31.75;;;;;;;;;;6252408;28;20173;-66
2022/03/15 06:46:36;;;;;;;63.88;32.08;;;;;;;;;;6227885;28;20040;-66
2022/03/15 06:49:37;;;;;;;63.92;30.23;;;;;;;;;;6218645;28;20490;-66
2022/03/15 06:52:37;;;;;;;75.60;31.20;;;;;;;;;;6233278;28;20042;-66
2022/03/15 06:55:38;;;;;;;60.50;32.22;;;;;;;;;;6239878;28;20267;-66
2022/03/15 06:58:38;;;;;;;56.53;29.90;;;;;;;;;;6236191;28;20032;-66
2022/03/15 07:01:39;;;;;;;65.80;32.90;;;;;;;;;;6227021;28;20026;-66
2022/03/15 07:04:40;;;;;;;62.38;30.60;;;;;;;;;;6224436;28;20178;-66
2022/03/15 07:07:40;;;;;;;65.50;30.92;;;;;;;;;;6220132;28;20033;-67
2022/03/15 07:10:41;;;;;;;53.08;29.08;;;;;;;;;;6223247;28;20026;-67
2022/03/15 07:13:41;;;;;;;60.22;30.40;;;;;;;;;;6222861;28;20033;-67
2022/03/15 07:16:41;;;;;;;62.05;32.10;;;;;;;;;;6230582;28;20539;-67
2022/03/15 07:19:41;;;;;;;60.92;31.52;;;;;;;;;;6239835;28;20017;-67
2022/03/15 07:22:42;;;;;;;58.55;29.77;;;;;;;;;;6238988;28;20096;-67
2022/03/15 07:25:42;;;;;;;59.85;29.50;;;;;;;;;;6232577;28;20033;-67
2022/03/15 07:28:42;;;;;;;68.60;34.13;;;;;;;;;;6234770;28;20063;-67
2022/03/15 07:31:43;;;;;;;62.40;34.33;;;;;;;;;;6230013;28;20491;-67
2022/03/15 07:34:44;;;;;;;64.70;33.92;;;;;;;;;;6226382;28;20010;-67
2022/03/15 07:37:48;;;;;;;55.97;31.08;;;;;;;;;;6225488;28;20025;-67
2022/03/15 07:40:49;;;;;;;63.70;34.28;;;;;;;;;;6219887;28;20021;-67
2022/03/15 07:43:49;;;;;;;51.22;28.20;;;;;;;;;;6228525;28;20108;-67
2022/03/15 07:46:50;;;;;;;57.15;30.17;;;;;;;;;;6230133;28;20024;-67
2022/03/15 07:49:51;;;;;;;51.88;29.98;;;;;;;;;;6230336;28;20080;-68
2022/03/15 07:52:53;;;;;;;56.80;28.42;;;;;;;;;;6228558;28;20112;-67
2022/03/15 07:55:54;;;;;;;50.28;25.92;;;;;;;;;;6239180;28;20135;-68
2022/03/15 07:58:54;;;;;;;46.50;26.65;;;;;;;;;;6241632;28;20543;-68
2022/03/15 08:01:54;;;;;;;47.60;25.23;;;;;;;;;;6238762;28;20022;-68
2022/03/15 08:04:55;;;;;;;44.88;23.95;;;;;;;;;;6217969;28;20113;-68
2022/03/15 08:07:55;;;;;;;37.80;22.73;;;;;;;;;;6223405;28;20375;-68
2022/03/15 08:10:56;;;;;;;38.60;21.05;;;;;;;;;;6226297;28;20449;-68
2022/03/15 08:13:57;;;;;;;45.70;24.27;;;;;;;;;;6225682;28;20033;-68
2022/03/15 08:16:57;;;;;;;41.22;22.50;;;;;;;;;;6229230;28;20397;-68
2022/03/15 08:19:58;;;;;;;39.58;21.45;;;;;;;;;;6221924;28;20042;-68
2022/03/15 08:22:58;;;;;;;41.88;21.77;;;;;;;;;;6230093;28;20026;-68
2022/03/15 08:25:58;;;;;;;32.92;19.90;;;;;;;;;;6234378;28;20022;-68
2022/03/15 08:28:59;;;;;;;38.80;21.25;;;;;;;;;;6245204;28;20044;-68
2022/03/15 08:31:59;;;;;;;43.22;20.77;;;;;;;;;;6245017;28;20014;-68
2022/03/15 08:34:59;;;;;;;35.38;20.58;;;;;;;;;;6246380;28;20427;-68
2022/03/15 08:38:00;;;;;;;35.28;19.90;;;;;;;;;;6240564;28;20020;-68
2022/03/15 08:41:01;;;;;;;45.28;21.33;;;;;;;;;;6233245;28;20010;-68
2022/03/15 08:44:01;;;;;;;38.50;21.05;;;;;;;;;;6221805;28;20097;-68
2022/03/15 08:47:01;;;;;;;41.70;20.90;;;;;;;;;;6220085;28;20029;-68
2022/03/15 08:50:02;;;;;;;38.38;22.05;;;;;;;;;;6222237;28;20097;-68
2022/03/15 08:53:02;;;;;;;37.75;21.95;;;;;;;;;;6221813;28;20073;-68
2022/03/15 08:56:03;;;;;;;40.25;22.30;;;;;;;;;;6230693;28;20037;-68
2022/03/15 08:59:03;;;;;;;47.47;23.95;;;;;;;;;;6239825;28;20111;-68
2022/03/15 09:02:03;;;;;;;39.70;20.65;;;;;;;;;;6238315;28;20025;-68
2022/03/15 09:05:04;;;;;;;39.83;22.50;;;;;;;;;;6242273;28;20409;-68
2022/03/15 09:08:04;;;;;;;39.97;21.50;;;;;;;;;;6244750;28;20425;-68
2022/03/15 09:11:05;;;;;;;31.65;20.35;;;;;;;;;;6244600;28;20087;-68
2022/03/15 09:14:05;;;;;;;37.00;18.55;;;;;;;;;;6242172;28;20026;-68
2022/03/15 09:17:06;;;;;;;40.88;21.55;;;;;;;;;;6240007;28;20017;-68
2022/03/15 09:20:08;;;;;;;44.65;19.52;;;;;;;;;;6244963;28;20022;-68
2022/03/15 09:23:08;;;;;;;;;;;;;;;;;;6246253;28;20037;-67
2022/03/15 09:26:08;;;;;;;37.60;19.65;;;;;;;;;;6238677;28;19940;-67
2022/03/15 09:29:12;;;;;;;35.63;18.53;;;;;;;;;;6229757;28;20030;-67
2022/03/15 09:32:12;;;;;;;33.95;19.13;;;;;;;;;;6242763;28;20017;-67
2022/03/15 09:35:13;;;;;;;36.65;18.73;;;;;;;;;;6239344;28;20048;-67
2022/03/15 09:38:13;;;;;;;34.63;17.70;;;;;;;;;;6230935;28;20053;-67
2022/03/15 09:41:15;;;;;;;36.80;19.33;;;;;;;;;;6233449;28;20430;-67
2022/03/15 09:44:16;;;;;;;35.45;20.27;;;;;;;;;;6237808;28;20017;-68
2022/03/15 09:47:17;;;;;;;36.53;18.75;;;;;;;;;;6238061;28;20026;-68
2022/03/15 09:50:20;;;;;;;34.93;16.13;;;;;;;;;;6244506;28;20115;-68
2022/03/15 09:53:20;;;;;;;33.17;17.33;;;;;;;;;;6223919;28;20041;-68
2022/03/15 09:56:20;;;;;;;27.65;15.13;;;;;;;;;;6231625;28;20084;-68
2022/03/15 09:59:21;;;;;;;30.33;16.23;;;;;;;;;;6226197;28;20018;-68
2022/03/15 10:02:22;;;;;;;25.60;15.13;;;;;;;;;;6244558;28;20033;-68
2022/03/15 10:05:23;;;;;;;30.87;16.77;;;;;;;;;;6241499;28;20469;-68
2022/03/15 10:08:23;;;;;;;24.87;13.90;;;;;;;;;;6242349;28;20323;-68
2022/03/15 10:11:24;;;;;;;30.13;16.80;;;;;;;;;;6241371;28;20018;-68
2022/03/15 10:14:24;;;;;;;22.97;13.70;;;;;;;;;;6231077;28;20064;-68
2022/03/15 10:17:25;;;;;;;27.13;13.50;;;;;;;;;;6226850;28;20625;-68
2022/03/15 10:20:28;;;;;;;24.40;11.97;;;;;;;;;;6214677;28;20021;-68
2022/03/15 10:23:35;;;;;;;26.98;13.02;;;;;;;;;;6220118;28;20527;-68
2022/03/15 10:26:39;;;;;;;25.65;12.00;;;;;;;;;;6222762;28;20087;-68
2022/03/15 10:29:42;;;;;;;20.85;12.32;;;;;;;;;;6244237;28;20115;-68
2022/03/15 10:32:42;;;;;;;26.17;13.23;;;;;;;;;;6244500;28;20110;-68
2022/03/15 10:35:47;;;;;;;19.67;12.43;;;;;;;;;;6244408;28;20369;-68
2022/03/15 10:38:48;;;;;;;20.73;11.43;;;;;;;;;;6243757;28;20022;-68
2022/03/15 10:41:50;;;;;;;23.17;12.82;;;;;;;;;;6227481;28;20025;-68
2022/03/15 10:44:50;;;;;;;21.27;12.90;;;;;;;;;;6244225;28;20040;-68
2022/03/15 10:47:52;;;;;;;22.23;10.33;;;;;;;;;;6244058;28;20148;-68
2022/03/15 10:51:02;;;;;;;16.58;9.93;;;;;;;;;;6226905;28;20385;-68
2022/03/15 10:54:04;;;;;;;21.13;10.82;;;;;;;;;;6233521;28;20054;-68
2022/03/15 10:57:04;;;;;;;18.05;10.15;;;;;;;;;;6230655;28;20029;-68
2022/03/15 11:00:05;;;;;;;17.53;10.50;;;;;;;;;;6232389;28;20104;-68
2022/03/15 11:03:07;;;;;;;20.67;12.00;;;;;;;;;;6231525;28;20026;-68
2022/03/15 11:06:08;;;;;;;19.15;12.15;;;;;;;;;;6239575;28;20055;-68
2022/03/15 11:09:23;;;;;;;21.52;12.18;;;;;;;;;;6242617;28;20025;-68
2022/03/15 11:12:23;;;;;;;19.92;10.93;;;;;;;;;;6240305;28;20025;-68
2022/03/15 11:15:30;;;;;;;21.83;11.40;;;;;;;;;;6239855;28;20033;-68
2022/03/15 11:18:32;;;;;;;21.95;11.20;;;;;;;;;;6240407;28;20075;-68
2022/03/15 11:21:33;;;;;;;21.00;10.48;;;;;;;;;;6226915;28;20039;-68
2022/03/15 11:24:36;;;;;;;19.08;10.88;;;;;;;;;;6218933;28;20049;-68
2022/03/15 11:27:41;;;;;;;20.17;9.95;;;;;;;;;;6230016;28;20451;-68
2022/03/15 11:30:42;;;;;;;21.58;11.90;;;;;;;;;;6242688;28;20029;-68
2022/03/15 11:33:47;;;;;;;19.03;10.60;;;;;;;;;;6242975;28;20461;-68
2022/03/15 11:36:48;;;;;;;20.67;12.85;;;;;;;;;;6231470;28;20300;-68
2022/03/15 11:39:49;;;;;;;21.02;12.13;;;;;;;;;;6229703;28;20030;-68
2022/03/15 11:42:54;;;;;;;23.43;13.93;;;;;;;;;;6226114;28;20018;-68
2022/03/15 11:45:58;;;;;;;22.20;12.43;;;;;;;;;;6230969;28;20275;-68
2022/03/15 11:49:23;;;;;;;19.33;12.38;;;;;;;;;;6234773;28;20024;-68
2022/03/15 11:52:33;;;;;;;25.08;11.40;;;;;;;;;;6219161;28;20045;-68
2022/03/15 11:55:33;;;;;;;26.65;13.55;;;;;;;;;;6233739;28;20437;-68
2022/03/15 11:58:34;;;;;;;15.43;9.80;;;;;;;;;;6232390;28;20518;-68
2022/03/15 12:01:47;;;;;;;18.53;10.37;;;;;;;;;;6234082;28;20021;-68
2022/03/15 12:04:48;;;;;;;15.10;9.18;;;;;;;;;;6230950;28;20029;-68
2022/03/15 12:08:12;;;;;;;16.33;9.60;;;;;;;;;;6228513;28;20172;-68
2022/03/15 12:11:12;;;;;;;17.50;10.35;;;;;;;;;;6230560;28;20476;-68
2022/03/15 12:14:17;;;;;;;17.10;10.70;;;;;;;;;;6242676;28;20079;-68
2022/03/15 12:17:19;;;;;;;23.00;10.02;;;;;;;;;;6241737;28;20518;-68
2022/03/15 12:20:20;;;;;;;21.08;11.27;;;;;;;;;;6239878;28;20462;-68
2022/03/15 12:23:22;;;;;;;16.30;9.70;;;;;;;;;;6218187;28;20033;-68
2022/03/15 12:26:24;;;;;;;16.70;10.13;;;;;;;;;;6219733;28;20030;-68
2022/03/15 12:29:26;;;;;;;23.45;11.27;;;;;;;;;;6237737;28;20032;-68
2022/03/15 12:32:27;;;;;;;19.95;9.27;;;;;;;;;;6231028;28;20116;-68
2022/03/15 12:35:31;;;;;;;19.10;10.03;;;;;;;;;;6221856;28;20440;-68
2022/03/15 12:38:32;;;;;;;16.90;8.45;;;;;;;;;;6240475;28;20503;-68
2022/03/15 12:41:33;;;;;;;15.95;9.43;;;;;;;;;;6240596;28;20060;-68
2022/03/15 12:44:52;;;;;;;18.23;10.20;;;;;;;;;;6236423;28;20018;-68
2022/03/15 12:48:01;;;;;;;16.90;10.30;;;;;;;;;;6237750;28;20021;-68
2022/03/15 12:51:02;;;;;;;19.27;10.10;;;;;;;;;;6231225;28;20477;-68
2022/03/15 12:54:07;;;;;;;18.03;10.10;;;;;;;;;;6237696;28;20121;-68
2022/03/15 12:57:09;;;;;;;18.55;10.32;;;;;;;;;;6226760;28;20030;-68
2022/03/15 13:00:09;;;;;;;20.70;11.02;;;;;;;;;;6224572;28;20026;-68
2022/03/15 13:03:13;;;;;;;27.77;15.30;;;;;;;;;;6245304;28;20436;-68
2022/03/15 13:06:20;;;;;;;30.95;14.07;;;;;;;;;;6244935;28;20565;-68
2022/03/15 13:09:24;;;;;;;28.45;14.30;;;;;;;;;;6243339;28;20284;-68
2022/03/15 13:12:32;;;;;;;23.38;11.57;;;;;;;;;;6224505;28;20523;-68
2022/03/15 13:15:32;;;;;;;22.60;11.65;;;;;;;;;;6224855;28;20029;-68
2022/03/15 13:18:35;;;;;;;17.53;10.67;;;;;;;;;;6219302;28;20053;-68
2022/03/15 13:21:38;;;;;;;17.55;10.10;;;;;;;;;;6219682;28;20084;-68
2022/03/15 13:24:38;;;;;;;17.35;9.85;;;;;;;;;;6219296;28;20397;-68
2022/03/15 13:27:39;;;;;;;18.90;10.63;;;;;;;;;;6231612;28;20029;-68
2022/03/15 13:30:43;;;;;;;17.43;9.13;;;;;;;;;;6244044;28;20023;-68
2022/03/15 13:33:45;;;;;;;19.90;11.32;;;;;;;;;;6242421;28;20087;-68
2022/03/15 13:36:46;;;;;;;17.20;11.35;;;;;;;;;;6243450;28;20025;-68
2022/03/15 13:39:46;;;;;;;19.10;10.53;;;;;;;;;;6243779;28;20480;-68
2022/03/15 13:42:47;;;;;;;17.53;9.70;;;;;;;;;;6236037;28;20108;-68
2022/03/15 13:45:47;;;;;;;18.77;9.87;;;;;;;;;;6243826;28;20425;-68
2022/03/15 13:48:48;;;;;;;15.50;9.13;;;;;;;;;;6244381;28;20395;-68
2022/03/15 13:51:52;;;;;;;17.63;9.75;;;;;;;;;;6243801;28;20017;-68
2022/03/15 13:55:00;;;;;;;14.45;9.23;;;;;;;;;;6242931;28;20034;-68
2022/03/15 13:58:00;;;;;;;20.40;9.48;;;;;;;;;;6244266;28;20548;-68
2022/03/15 14:01:03;;;;;;;17.67;9.50;;;;;;;;;;6231009;28;20021;-68
2022/03/15 14:04:10;;;;;;;20.58;11.77;;;;;;;;;;6234380;28;20017;-68
2022/03/15 14:07:12;;;;;;;19.83;9.95;;;;;;;;;;6236160;28;20025;-68
2022/03/15 14:10:17;;;;;;;19.08;11.02;;;;;;;;;;6224564;28;20072;-68
2022/03/15 14:13:19;;;;;;;19.92;11.55;;;;;;;;;;6227079;28;20014;-67
2022/03/15 14:16:21;;;;;;;24.92;12.25;;;;;;;;;;6212399;28;20018;-67
2022/03/15 14:19:21;;;;;;;29.13;14.65;;;;;;;;;;6233594;28;20014;-67
2022/03/15 14:22:23;;;;;;;20.97;11.50;;;;;;;;;;6228871;28;20101;-67
2022/03/15 14:25:28;;;;;;;20.00;10.20;;;;;;;;;;6241264;28;20028;-68
2022/03/15 14:28:29;;;;;;;20.15;11.68;;;;;;;;;;6234938;28;20049;-67
2022/03/15 14:31:37;;;;;;;22.33;11.20;;;;;;;;;;6239885;28;20067;-67
2022/03/15 14:34:38;;;;;;;31.98;13.23;;;;;;;;;;6240305;28;20095;-67
2022/03/15 14:37:38;;;;;;;20.83;11.83;;;;;;;;;;6243240;28;20025;-67
2022/03/15 14:40:44;;;;;;;18.90;11.00;;;;;;;;;;6242543;28;20311;-67
2022/03/15 14:43:45;;;;;;;21.48;11.57;;;;;;;;;;6243648;28;20013;-67
2022/03/15 14:46:48;;;;;;;24.93;11.80;;;;;;;;;;6243066;28;20022;-67
2022/03/15 14:49:50;;;;;;;19.55;11.95;;;;;;;;;;6232343;28;20112;-67
2022/03/15 14:52:50;;;;;;;17.35;12.13;;;;;;;;;;6232738;28;20346;-67
2022/03/15 14:55:50;;;;;;;25.67;13.17;;;;;;;;;;6241597;28;20516;-67
2022/03/15 14:58:52;;;;;;;26.90;12.63;;;;;;;;;;6238982;28;20214;-67
2022/03/15 15:01:54;;;;;;;19.58;11.88;;;;;;;;;;6241634;28;20052;-68
2022/03/15 15:04:55;;;;;;;20.10;10.70;;;;;;;;;;6209768;28;20663;-68
2022/03/15 15:07:55;;;;;;;29.90;11.17;;;;;;;;;;6216732;28;20144;-68
2022/03/15 15:10:57;;;;;;;24.33;11.03;;;;;;;;;;6227520;28;20079;-68
2022/03/15 15:13:57;;;;;;;21.80;12.13;;;;;;;;;;6241128;28;20033;-67
2022/03/15 15:16:57;;;;;;;19.03;11.17;;;;;;;;;;6241576;28;20723;-68
2022/03/15 15:20:01;;;;;;;20.97;11.17;;;;;;;;;;6241452;28;20017;-68
2022/03/15 15:23:01;;;;;;;20.33;10.93;;;;;;;;;;6241397;28;20014;-68
2022/03/15 15:26:04;;;;;;;19.20;10.73;;;;;;;;;;6241824;28;20380;-68
2022/03/15 15:29:05;;;;;;;21.35;11.07;;;;;;;;;;6218860;28;20037;-68
2022/03/15 15:32:06;;;;;;;20.73;12.33;;;;;;;;;;6235898;28;20025;-68
2022/03/15 15:35:07;;;;;;;18.10;10.37;;;;;;;;;;6241586;28;20140;-68
2022/03/15 15:38:10;;;;;;;19.73;11.00;;;;;;;;;;6241808;28;20346;-67
2022/03/15 15:41:11;;;;;;;17.63;11.32;;;;;;;;;;6233009;28;20263;-67
2022/03/15 15:44:14;;;;;;;17.05;9.85;;;;;;;;;;6224434;28;20053;-67
2022/03/15 15:47:15;;;;;;;20.90;12.70;;;;;;;;;;6219454;28;20052;-67
2022/03/15 15:50:16;;;;;;;19.77;10.35;;;;;;;;;;6199841;28;20117;-67
2022/03/15 15:53:21;;;;;;;21.10;10.32;;;;;;;;;;6221350;28;20053;-67
2022/03/15 15:56:21;;;;;;;17.75;9.85;;;;;;;;;;6235276;28;20163;-67
2022/03/15 15:59:21;;;;;;;17.13;11.00;;;;;;;;;;6242170;28;20023;-67
2022/03/15 16:02:22;;;;;;;18.07;10.27;;;;;;;;;;6230725;28;20431;-68
2022/03/15 16:05:26;;;;;;;20.07;10.17;;;;;;;;;;6230318;28;20125;-68
2022/03/15 16:08:27;;;;;;;20.10;10.65;;;;;;;;;;6242801;28;20033;-67
2022/03/15 16:11:28;;;;;;;20.13;11.32;;;;;;;;;;6248123;28;20018;-67
2022/03/15 16:14:28;;;;;;;23.15;12.82;;;;;;;;;;6247507;28;20531;-67
2022/03/15 16:17:28;;;;;;;22.33;12.45;;;;;;;;;;6247409;28;20022;-67
2022/03/15 16:20:29;;;;;;;22.47;12.67;;;;;;;;;;6247957;28;20441;-67
2022/03/15 16:23:29;;;;;;;27.70;12.68;;;;;;;;;;6247191;28;20448;-67
2022/03/15 16:26:31;;;;;;;27.15;13.40;;;;;;;;;;6247344;28;20554;-67
2022/03/15 16:29:31;;;;;;;27.52;11.85;;;;;;;;;;6247316;28;20036;-67
2022/03/15 16:32:31;;;;;;;22.23;11.10;;;;;;;;;;6246425;28;20029;-67
2022/03/15 16:35:32;;;;;;;28.42;12.65;;;;;;;;;;6238193;28;20037;-67
2022/03/15 16:38:33;;;;;;;27.67;12.95;;;;;;;;;;6243002;28;20385;-67
2022/03/15 16:41:35;;;;;;;26.75;12.43;;;;;;;;;;6244115;28;20013;-67
2022/03/15 16:44:36;;;;;;;22.77;10.40;;;;;;;;;;6238669;28;20029;-67
2022/03/15 16:47:36;;;;;;;27.52;13.48;;;;;;;;;;6228691;28;20056;-67
2022/03/15 16:50:37;;;;;;;23.90;11.38;;;;;;;;;;6228711;28;20038;-67
2022/03/15 16:53:37;;;;;;;39.50;20.73;;;;;;;;;;6241755;28;20566;-67
2022/03/15 16:56:38;;;;;;;30.15;16.17;;;;;;;;;;6224551;28;20029;-67
2022/03/15 16:59:42;;;;;;;53.03;25.02;;;;;;;;;;6241930;28;20026;-67
2022/03/15 17:02:42;;;;;;;47.30;24.52;;;;;;;;;;6243905;28;20021;-67
2022/03/15 17:05:43;;;;;;;57.67;27.98;;;;;;;;;;6245724;28;20113;-67
2022/03/15 17:08:43;;;;;;;50.15;24.20;;;;;;;;;;6231947;28;20047;-67
2022/03/15 17:11:44;;;;;;;36.58;19.98;;;;;;;;;;6243472;28;20468;-67
2022/03/15 17:14:44;;;;;;;41.45;19.73;;;;;;;;;;6245210;28;20033;-67
2022/03/15 17:17:46;;;;;;;30.95;17.52;;;;;;;;;;6244486;28;20064;-67
2022/03/15 17:20:47;;;;;;;40.80;19.50;;;;;;;;;;6245648;28;20040;-67
2022/03/15 17:23:47;;;;;;;40.50;18.52;;;;;;;;;;6244695;28;20057;-67
2022/03/15 17:26:47;;;;;;;32.58;19.00;;;;;;;;;;6244779;28;20017;-67
2022/03/15 17:29:50;;;;;;;29.77;16.88;;;;;;;;;;6246250;28;20484;-67
2022/03/15 17:32:50;;;;;;;42.42;20.20;;;;;;;;;;6229337;28;20547;-67
2022/03/15 17:35:51;;;;;;;51.42;23.48;;;;;;;;;;6245969;28;20045;-67
2022/03/15 17:38:51;;;;;;;47.85;21.95;;;;;;;;;;6245415;28;20393;-67